createdAt,value
2023-05-19T00:01:48.563Z,101076.84
2023-05-19T00:04:15.516Z,101072.31
2023-05-19T00:06:42.519Z,101064.22
2023-05-19T00:09:10.368Z,101059.00
2023-05-19T00:11:38.618Z,101064.16
2023-05-19T00:14:07.739Z,101065.06
2023-05-19T00:16:34.752Z,101065.09
2023-05-19T00:19:03.285Z,101055.84
2023-05-19T00:21:31.288Z,101062.66
2023-05-19T00:23:58.190Z,101068.28
2023-05-19T00:26:26.851Z,101064.91
2023-05-19T00:28:53.377Z,101058.13
2023-05-19T00:31:19.830Z,101068.19
2023-05-19T00:33:46.304Z,101069.06
2023-05-19T00:36:12.916Z,101058.91
2023-05-19T00:38:39.633Z,101068.28
2023-05-19T00:41:07.095Z,101060.72
2023-05-19T00:43:36.734Z,101061.16
2023-05-19T00:46:03.929Z,101059.81
2023-05-19T00:48:30.481Z,101058.13
2023-05-19T00:51:06.343Z,101054.50
2023-05-19T00:53:34.024Z,101059.69
2023-05-19T00:56:01.222Z,101058.03
2023-05-19T00:58:30.280Z,101059.28
2023-05-19T01:01:06.717Z,101053.78
2023-05-19T01:03:35.604Z,101050.16
2023-05-19T01:06:05.587Z,101047.34
2023-05-19T01:08:33.389Z,101054.56
2023-05-19T01:11:00.500Z,101043.66
2023-05-19T01:13:30.705Z,101043.72
2023-05-19T01:16:32.168Z,101037.44
2023-05-19T01:19:20.940Z,101038.22
2023-05-19T01:22:13.086Z,101039.22
2023-05-19T01:24:54.965Z,101028.16
2023-05-19T01:27:48.063Z,101034.63
2023-05-19T01:30:43.386Z,101032.03
2023-05-19T01:33:14.607Z,101037.31
2023-05-19T01:35:43.016Z,101033.34
2023-05-19T01:38:12.681Z,101038.53
2023-05-19T01:40:41.678Z,101041.06
2023-05-19T01:43:10.090Z,101041.72
2023-05-19T01:45:36.958Z,101038.22
2023-05-19T01:48:04.831Z,101037.88
2023-05-19T01:50:33.037Z,101036.22
2023-05-19T01:53:00.658Z,101039.00
2023-05-19T01:55:27.640Z,101037.47
2023-05-19T01:58:06.242Z,101037.84
2023-05-19T02:00:32.929Z,101044.09
2023-05-19T02:03:26.487Z,101040.81
2023-05-19T02:06:16.483Z,101055.25
2023-05-19T02:08:47.926Z,101040.06
2023-05-19T02:11:39.359Z,101048.53
2023-05-19T02:14:14.012Z,101039.03
2023-05-19T02:16:46.355Z,101039.22
2023-05-19T02:19:27.116Z,101038.34
2023-05-19T02:21:54.011Z,101038.75
2023-05-19T02:24:22.677Z,101038.22
2023-05-19T02:26:53.091Z,101036.50
2023-05-19T02:29:20.662Z,101036.19
2023-05-19T02:31:47.424Z,101031.31
2023-05-19T02:34:14.077Z,101034.47
2023-05-19T02:36:45.407Z,101035.63
2023-05-19T02:39:12.579Z,101034.72
2023-05-19T02:41:39.217Z,101028.19
2023-05-19T02:44:05.729Z,101026.38
2023-05-19T02:46:32.280Z,101024.56
2023-05-19T02:48:59.186Z,101029.75
2023-05-19T02:51:25.693Z,101027.97
2023-05-19T02:53:52.149Z,101028.50
2023-05-19T02:56:18.615Z,101025.81
2023-05-19T02:58:45.054Z,101024.34
2023-05-19T03:01:12.130Z,101026.38
2023-05-19T03:03:38.651Z,101033.78
2023-05-19T03:06:08.635Z,101029.97
2023-05-19T03:08:36.232Z,101033.25
2023-05-19T03:11:03.173Z,101031.56
2023-05-19T03:13:29.833Z,101030.22
2023-05-19T03:15:58.705Z,101026.38
2023-05-19T03:18:26.384Z,101021.88
2023-05-19T03:20:56.445Z,101030.88
2023-05-19T03:23:23.000Z,101029.06
2023-05-19T03:25:49.435Z,101019.59
2023-05-19T03:28:15.953Z,101029.53
2023-05-19T03:30:42.526Z,101041.28
2023-05-19T03:33:09.070Z,101030.78
2023-05-19T03:35:35.584Z,101036.50
2023-05-19T03:38:02.049Z,101039.22
2023-05-19T03:40:28.534Z,101043.19
2023-05-19T03:42:55.017Z,101041.47
2023-05-19T03:45:21.464Z,101044.75
2023-05-19T03:47:48.009Z,101038.56
2023-05-19T03:50:14.514Z,101049.81
2023-05-19T03:52:46.565Z,101048.25
2023-05-19T03:55:14.821Z,101043.63
2023-05-19T03:57:43.418Z,101051.19
2023-05-19T04:00:28.271Z,101055.00
2023-05-19T04:02:55.089Z,101051.06
2023-05-19T04:05:25.400Z,101048.47
2023-05-19T04:07:55.630Z,101053.91
2023-05-19T04:10:25.323Z,101057.25
2023-05-19T04:12:52.267Z,101061.09
2023-05-19T04:15:19.313Z,101058.63
2023-05-19T04:17:46.525Z,101068.66
2023-05-19T04:20:13.519Z,101066.19
2023-05-19T04:22:39.994Z,101069.69
2023-05-19T04:25:07.530Z,101069.56
2023-05-19T04:27:36.685Z,101070.56
2023-05-19T04:30:04.062Z,101081.75
2023-05-19T04:32:31.017Z,101073.72
2023-05-19T04:34:58.897Z,101078.81
2023-05-19T04:37:26.407Z,101081.41
2023-05-19T04:39:53.066Z,101079.59
2023-05-19T04:42:19.785Z,101091.13
2023-05-19T04:44:49.161Z,101088.41
2023-05-19T04:47:15.916Z,101092.69
2023-05-19T04:49:43.109Z,101093.94
2023-05-19T04:52:11.110Z,101094.94
2023-05-19T04:54:38.697Z,101092.22
2023-05-19T04:57:05.934Z,101093.03
2023-05-19T04:59:32.651Z,101096.31
2023-05-19T05:01:59.185Z,101097.31
2023-05-19T05:04:25.986Z,101093.44
2023-05-19T05:06:52.442Z,101101.22
2023-05-19T05:09:19.984Z,101102.72
2023-05-19T05:11:46.714Z,101105.66
2023-05-19T05:14:13.508Z,101098.00
2023-05-19T05:16:40.906Z,101094.72
2023-05-19T05:19:07.802Z,101100.47
2023-05-19T05:21:34.722Z,101103.75
2023-05-19T05:24:01.541Z,101102.16
2023-05-19T05:26:31.687Z,101098.22
2023-05-19T05:28:58.172Z,101104.16
2023-05-19T05:31:24.668Z,101101.91
2023-05-19T05:33:51.214Z,101103.41
2023-05-19T05:36:17.701Z,101110.50
2023-05-19T05:38:44.268Z,101100.81
2023-05-19T05:41:10.760Z,101106.47
2023-05-19T05:43:37.254Z,101106.22
2023-05-19T05:46:03.812Z,101107.56
2023-05-19T05:48:30.631Z,101111.06
2023-05-19T05:50:57.990Z,101102.50
2023-05-19T05:53:26.792Z,101105.88
2023-05-19T05:55:53.667Z,101111.53
2023-05-19T05:58:21.212Z,101111.53
2023-05-19T06:00:51.397Z,101113.56
2023-05-19T06:03:17.982Z,101120.22
2023-05-19T06:05:44.685Z,101117.19
2023-05-19T06:08:11.263Z,101112.91
2023-05-19T06:10:39.061Z,101117.97
2023-05-19T06:13:05.617Z,101116.16
2023-05-19T06:15:32.271Z,101112.56
2023-05-19T06:17:59.297Z,101117.88
2023-05-19T06:20:26.293Z,101115.56
2023-05-19T06:22:52.798Z,101120.41
2023-05-19T06:25:20.565Z,101121.34
2023-05-19T06:27:47.097Z,101127.19
2023-05-19T06:30:13.833Z,101121.09
2023-05-19T06:32:40.587Z,101128.31
2023-05-19T06:35:07.460Z,101130.38
2023-05-19T06:37:33.904Z,101127.91
2023-05-19T06:40:00.477Z,101121.44
2023-05-19T06:42:26.940Z,101128.47
2023-05-19T06:44:53.533Z,101131.72
2023-05-19T06:47:20.049Z,101120.47
2023-05-19T06:49:50.510Z,101133.53
2023-05-19T06:52:17.260Z,101127.66
2023-05-19T06:54:43.796Z,101137.94
2023-05-19T06:57:10.272Z,101145.59
2023-05-19T06:59:37.575Z,101139.41
2023-05-19T07:02:04.755Z,101139.75
2023-05-19T07:04:31.310Z,101138.38
2023-05-19T07:06:57.774Z,101137.94
2023-05-19T07:09:24.413Z,101145.25
2023-05-19T07:11:50.978Z,101138.38
2023-05-19T07:14:18.358Z,101144.13
2023-05-19T07:16:44.989Z,101142.09
2023-05-19T07:19:11.557Z,101152.47
2023-05-19T07:21:38.286Z,101147.38
2023-05-19T07:24:04.805Z,101148.38
2023-05-19T07:26:31.235Z,101152.47
2023-05-19T07:28:57.872Z,101150.78
2023-05-19T07:31:24.466Z,101146.41
2023-05-19T07:33:52.294Z,101145.81
2023-05-19T07:36:21.001Z,101150.97
2023-05-19T07:38:47.680Z,101142.63
2023-05-19T07:41:14.449Z,101150.28
2023-05-19T07:43:42.656Z,101146.44
2023-05-19T07:46:09.179Z,101144.06
2023-05-19T07:48:35.973Z,101150.06
2023-05-19T07:51:02.637Z,101144.97
2023-05-19T07:53:29.118Z,101132.78
2023-05-19T07:55:58.399Z,101147.66
2023-05-19T07:58:25.432Z,101148.59
2023-05-19T08:00:53.314Z,101148.03
2023-05-19T08:03:20.805Z,101147.34
2023-05-19T08:05:47.682Z,101144.06
2023-05-19T08:08:16.604Z,101146.56
2023-05-19T08:10:43.495Z,101142.72
2023-05-19T08:13:09.962Z,101147.69
2023-05-19T08:15:37.022Z,101138.88
2023-05-19T08:18:05.302Z,101144.53
2023-05-19T08:20:32.530Z,101143.63
2023-05-19T08:22:59.351Z,101146.22
2023-05-19T08:25:25.826Z,101144.66
2023-05-19T08:27:52.265Z,101141.94
2023-05-19T08:30:18.826Z,101138.44
2023-05-19T08:32:45.503Z,101137.75
2023-05-19T08:35:12.157Z,101148.59
2023-05-19T08:37:38.757Z,101142.03
2023-05-19T08:40:06.202Z,101136.69
2023-05-19T08:42:33.863Z,101138.84
2023-05-19T08:45:02.085Z,101138.84
2023-05-19T08:47:29.034Z,101143.25
2023-05-19T08:50:05.108Z,101143.91
2023-05-19T08:52:47.881Z,101139.50
2023-05-19T08:55:41.102Z,101145.69
2023-05-19T08:58:08.639Z,101143.91
2023-05-19T09:00:35.794Z,101147.59
2023-05-19T09:03:17.364Z,101144.31
2023-05-19T09:05:46.661Z,101133.22
2023-05-19T09:08:13.861Z,101142.69
2023-05-19T09:10:40.331Z,101137.06
2023-05-19T09:13:06.948Z,101132.16
2023-05-19T09:15:36.708Z,101138.78
2023-05-19T09:18:08.962Z,101144.25
2023-05-19T09:20:43.862Z,101134.53
2023-05-19T09:23:17.815Z,101130.66
2023-05-19T09:25:51.322Z,101129.03
2023-05-19T09:28:23.747Z,101130.41
2023-05-19T09:30:59.291Z,101137.00
2023-05-19T09:33:25.924Z,101135.16
2023-05-19T09:35:55.207Z,101132.88
2023-05-19T09:38:23.673Z,101131.84
2023-05-19T09:40:50.450Z,101126.97
2023-05-19T09:43:16.956Z,101146.09
2023-05-19T09:45:43.572Z,101136.44
2023-05-19T09:48:10.190Z,101139.72
2023-05-19T09:50:37.407Z,101141.22
2023-05-19T09:53:04.077Z,101137.81
2023-05-19T09:55:51.115Z,101136.69
2023-05-19T09:58:21.566Z,101133.28
2023-05-19T10:00:48.527Z,101130.50
2023-05-19T10:03:17.662Z,101129.69
2023-05-19T10:05:45.229Z,101118.84
2023-05-19T10:08:12.439Z,101130.25
2023-05-19T10:10:39.084Z,101127.91
2023-05-19T10:13:06.381Z,101123.38
2023-05-19T10:15:36.112Z,101118.16
2023-05-19T10:18:06.998Z,101125.47
2023-05-19T10:20:35.207Z,101127.75
2023-05-19T10:23:03.175Z,101128.06
2023-05-19T10:25:34.549Z,101126.25
2023-05-19T10:28:08.907Z,101125.09
2023-05-19T10:30:44.882Z,101134.97
2023-05-19T10:33:17.286Z,101137.25
2023-05-19T10:36:21.376Z,101136.22
2023-05-19T10:38:58.815Z,101138.28
2023-05-19T10:41:45.005Z,101132.41
2023-05-19T10:44:39.422Z,101131.88
2023-05-19T10:47:12.045Z,101142.53
2023-05-19T10:49:39.736Z,101131.81
2023-05-19T10:52:21.450Z,101132.41
2023-05-19T10:54:47.994Z,101131.50
2023-05-19T10:57:17.593Z,101130.19
2023-05-19T10:59:47.397Z,101142.47
2023-05-19T11:02:43.180Z,101131.31
2023-05-19T11:05:14.444Z,101128.13
2023-05-19T11:07:43.617Z,101124.53
2023-05-19T11:10:10.650Z,101135.63
2023-05-19T11:12:52.053Z,101134.34
2023-05-19T11:15:19.211Z,101136.63
2023-05-19T11:17:48.741Z,101135.38
2023-05-19T11:20:26.346Z,101135.63
2023-05-19T11:23:09.416Z,101129.84
2023-05-19T11:25:49.397Z,101130.88
2023-05-19T11:28:21.427Z,101131.56
2023-05-19T11:30:52.187Z,101121.59
2023-05-19T11:33:19.443Z,101123.09
2023-05-19T11:35:53.843Z,101125.34
2023-05-19T11:38:23.713Z,101125.44
2023-05-19T11:40:53.382Z,101124.78
2023-05-19T11:43:22.717Z,101120.59
2023-05-19T11:45:50.250Z,101124.22
2023-05-19T11:48:17.557Z,101123.75
2023-05-19T11:50:46.060Z,101121.84
2023-05-19T11:53:20.672Z,101109.91
2023-05-19T11:55:56.485Z,101118.00
2023-05-19T11:58:27.811Z,101112.78
2023-05-19T12:00:55.216Z,101114.34
2023-05-19T12:03:26.400Z,101113.91
2023-05-19T12:05:53.704Z,101117.91
2023-05-19T12:08:21.488Z,101109.44
2023-05-19T12:10:51.876Z,101117.69
2023-05-19T12:13:19.618Z,101117.09
2023-05-19T12:15:46.346Z,101118.00
2023-05-19T12:18:12.871Z,101117.22
2023-05-19T12:20:39.556Z,101112.81
2023-05-19T12:23:06.413Z,101111.13
2023-05-19T12:25:33.176Z,101119.81
2023-05-19T12:28:05.639Z,101119.81
2023-05-19T12:30:33.369Z,101121.94
2023-05-19T12:33:02.012Z,101124.38
2023-05-19T12:35:30.595Z,101121.91
2023-05-19T12:37:57.804Z,101116.38
2023-05-19T12:40:24.595Z,101122.44
2023-05-19T12:42:53.271Z,101118.63
2023-05-19T12:45:22.265Z,101117.94
2023-05-19T12:47:49.634Z,101115.91
2023-05-19T12:50:16.196Z,101119.88
2023-05-19T12:52:46.516Z,101116.16
2023-05-19T12:55:17.372Z,101113.44
2023-05-19T12:57:48.719Z,101113.03
2023-05-19T13:00:28.531Z,101106.22
2023-05-19T13:03:01.836Z,101107.69
2023-05-19T13:05:29.928Z,101110.09
2023-05-19T13:08:13.281Z,101106.44
2023-05-19T13:10:56.709Z,101120.66
2023-05-19T13:13:23.219Z,101121.97
2023-05-19T13:15:49.683Z,101114.09
2023-05-19T13:18:17.896Z,101119.84
2023-05-19T13:20:45.592Z,101116.38
2023-05-19T13:23:13.519Z,101113.66
2023-05-19T13:25:41.499Z,101111.59
2023-05-19T13:28:08.999Z,101112.06
2023-05-19T13:30:38.429Z,101112.03
2023-05-19T13:33:05.189Z,101114.16
2023-05-19T13:35:36.963Z,101116.88
2023-05-19T13:38:09.473Z,101116.75
2023-05-19T13:40:36.661Z,101118.84
2023-05-19T13:43:04.229Z,101116.75
2023-05-19T13:45:30.875Z,101111.00
2023-05-19T13:47:57.428Z,101111.75
2023-05-19T13:50:24.034Z,101119.66
2023-05-19T13:52:50.596Z,101117.84
2023-05-19T13:55:17.425Z,101113.44
2023-05-19T13:57:44.342Z,101111.00
2023-05-19T14:00:11.463Z,101108.69
2023-05-19T14:02:38.244Z,101108.81
2023-05-19T14:05:06.553Z,101104.06
2023-05-19T14:07:34.789Z,101104.47
2023-05-19T14:10:02.836Z,101097.72
2023-05-19T14:12:38.005Z,101100.25
2023-05-19T14:15:14.086Z,101093.19
2023-05-19T14:17:40.903Z,101093.19
2023-05-19T14:20:08.420Z,101089.44
2023-05-19T14:22:35.203Z,101081.19
2023-05-19T14:25:02.417Z,101083.91
2023-05-19T14:27:29.077Z,101087.53
2023-05-19T14:29:55.615Z,101080.91
2023-05-19T14:32:22.368Z,101078.41
2023-05-19T14:34:52.754Z,101070.88
2023-05-19T14:37:20.187Z,101074.81
2023-05-19T14:39:46.882Z,101072.81
2023-05-19T14:42:13.447Z,101070.31
2023-05-19T14:44:39.922Z,101076.09
2023-05-19T14:47:07.385Z,101074.84
2023-05-19T14:49:34.042Z,101077.19
2023-05-19T14:52:00.714Z,101082.63
2023-05-19T14:54:27.185Z,101072.44
2023-05-19T14:56:53.681Z,101075.91
2023-05-19T14:59:21.623Z,101073.75
2023-05-19T15:01:48.186Z,101077.00
2023-05-19T15:04:14.889Z,101072.03
2023-05-19T15:06:41.666Z,101074.34
2023-05-19T15:09:08.402Z,101069.16
2023-05-19T15:11:34.970Z,101072.44
2023-05-19T15:14:01.544Z,101064.88
2023-05-19T15:16:28.310Z,101063.50
2023-05-19T15:18:54.941Z,101057.38
2023-05-19T15:21:21.405Z,101069.53
2023-05-19T15:23:47.879Z,101058.03
2023-05-19T15:26:14.398Z,101060.34
2023-05-19T15:28:41.077Z,101051.97
2023-05-19T15:31:07.775Z,101056.03
2023-05-19T15:33:34.869Z,101059.53
2023-05-19T15:36:01.344Z,101067.50
2023-05-19T15:38:29.837Z,101062.56
2023-05-19T15:40:56.647Z,101054.84
2023-05-19T15:43:23.238Z,101059.25
2023-05-19T15:45:54.903Z,101056.56
2023-05-19T15:48:21.452Z,101053.28
2023-05-19T15:50:48.788Z,101046.72
2023-05-19T15:53:15.411Z,101048.47
2023-05-19T15:55:41.902Z,101050.88
2023-05-19T15:58:08.852Z,101047.94
2023-05-19T16:00:35.534Z,101045.50
2023-05-19T16:03:02.316Z,101040.63
2023-05-19T16:05:28.879Z,101035.81
2023-05-19T16:07:55.321Z,101045.56
2023-05-19T16:10:21.838Z,101036.16
2023-05-19T16:12:48.310Z,101037.03
2023-05-19T16:15:14.865Z,101036.25
2023-05-19T16:17:41.556Z,101038.38
2023-05-19T16:20:20.024Z,101029.59
2023-05-19T16:22:46.499Z,101038.25
2023-05-19T16:25:13.189Z,101030.34
2023-05-19T16:27:39.705Z,101030.84
2023-05-19T16:30:07.040Z,101019.72
2023-05-19T16:32:33.941Z,101027.91
2023-05-19T16:35:00.681Z,101025.69
2023-05-19T16:37:27.144Z,101016.44
2023-05-19T16:39:53.636Z,101016.25
2023-05-19T16:42:20.137Z,101020.25
2023-05-19T16:44:46.851Z,101015.63
2023-05-19T16:47:13.457Z,101013.97
2023-05-19T16:49:40.856Z,101013.84
2023-05-19T16:52:08.069Z,101012.91
2023-05-19T16:54:34.827Z,101009.75
2023-05-19T16:57:01.415Z,101014.03
2023-05-19T16:59:27.901Z,101003.47
2023-05-19T17:01:55.962Z,101011.03
2023-05-19T17:04:22.846Z,101015.06
2023-05-19T17:06:49.367Z,101018.22
2023-05-19T17:09:15.846Z,101020.78
2023-05-19T17:11:42.303Z,101020.78
2023-05-19T17:14:09.205Z,101025.16
2023-05-19T17:16:36.753Z,101026.56
2023-05-19T17:19:04.160Z,101022.84
2023-05-19T17:21:31.714Z,101029.81
2023-05-19T17:23:58.178Z,101026.69
2023-05-19T17:26:24.620Z,101025.06
2023-05-19T17:28:51.248Z,101029.91
2023-05-19T17:31:18.376Z,101024.75
2023-05-19T17:33:44.932Z,101026.56
2023-05-19T17:36:11.662Z,101022.03
2023-05-19T17:38:40.399Z,101024.38
2023-05-19T17:41:11.041Z,101036.22
2023-05-19T17:43:38.226Z,101024.91
2023-05-19T17:46:05.361Z,101020.41
2023-05-19T17:48:32.078Z,101030.22
2023-05-19T17:50:59.236Z,101024.91
2023-05-19T17:53:26.245Z,101030.53
2023-05-19T17:55:58.277Z,101044.16
2023-05-19T17:58:25.757Z,101039.69
2023-05-19T18:00:52.523Z,101030.47
2023-05-19T18:03:19.715Z,101032.63
2023-05-19T18:05:47.201Z,101035.09
2023-05-19T18:08:14.785Z,101042.31
2023-05-19T18:10:42.697Z,101049.03
2023-05-19T18:13:18.308Z,101052.56
2023-05-19T18:15:44.787Z,101055.53
2023-05-19T18:18:11.725Z,101051.97
2023-05-19T18:20:39.363Z,101048.59
2023-05-19T18:23:06.060Z,101041.13
2023-05-19T18:25:32.513Z,101039.56
2023-05-19T18:27:59.028Z,101043.19
2023-05-19T18:30:25.576Z,101039.78
2023-05-19T18:32:52.118Z,101048.13
2023-05-19T18:35:20.727Z,101043.03
2023-05-19T18:37:47.250Z,101039.59
2023-05-19T18:40:13.710Z,101042.16
2023-05-19T18:42:40.180Z,101042.22
2023-05-19T18:45:07.112Z,101044.16
2023-05-19T18:47:33.557Z,101040.16
2023-05-19T18:50:00.062Z,101042.22
2023-05-19T18:52:28.246Z,101040.88
2023-05-19T18:54:55.043Z,101032.59
2023-05-19T18:57:21.509Z,101029.44
2023-05-19T18:59:47.954Z,101037.47
2023-05-19T19:02:15.162Z,101032.50
2023-05-19T19:04:41.653Z,101036.91
2023-05-19T19:07:08.125Z,101033.31
2023-05-19T19:09:34.627Z,101041.53
2023-05-19T19:12:01.059Z,101034.44
2023-05-19T19:14:27.497Z,101039.19
2023-05-19T19:16:54.044Z,101039.56
2023-05-19T19:19:20.684Z,101043.81
2023-05-19T19:21:47.135Z,101033.75
2023-05-19T19:24:13.721Z,101042.72
2023-05-19T19:26:40.358Z,101040.63
2023-05-19T19:29:06.832Z,101039.91
2023-05-19T19:31:33.403Z,101041.13
2023-05-19T19:34:03.610Z,101047.47
2023-05-19T19:36:30.126Z,101049.69
2023-05-19T19:38:56.680Z,101054.00
2023-05-19T19:41:23.201Z,101045.75
2023-05-19T19:43:50.873Z,101052.84
2023-05-19T19:46:17.401Z,101058.28
2023-05-19T19:48:43.971Z,101068.09
2023-05-19T19:51:10.420Z,101070.44
2023-05-19T19:53:36.917Z,101067.09
2023-05-19T19:56:04.885Z,101069.53
2023-05-19T19:58:31.354Z,101067.59
2023-05-19T20:01:03.078Z,101063.94
2023-05-19T20:03:29.920Z,101070.13
2023-05-19T20:05:56.903Z,101066.50
2023-05-19T20:08:24.557Z,101067.69
2023-05-19T20:10:51.220Z,101062.09
2023-05-19T20:13:18.980Z,101066.25
2023-05-19T20:15:46.876Z,101074.47
2023-05-19T20:18:13.488Z,101071.66
2023-05-19T20:20:40.887Z,101076.97
2023-05-19T20:23:07.995Z,101072.69
2023-05-19T20:25:53.666Z,101075.56
2023-05-19T20:28:28.098Z,101065.75
2023-05-19T20:30:54.565Z,101070.13
2023-05-19T20:33:21.216Z,101067.59
2023-05-19T20:35:47.732Z,101063.09
2023-05-19T20:38:14.223Z,101065.56
2023-05-19T20:40:40.811Z,101058.84
2023-05-19T20:43:07.324Z,101070.88
2023-05-19T20:45:34.069Z,101066.38
2023-05-19T20:48:02.649Z,101066.88
2023-05-19T20:50:29.170Z,101068.28
2023-05-19T20:52:55.655Z,101075.66
2023-05-19T20:55:22.100Z,101075.91
2023-05-19T20:57:48.650Z,101074.84
2023-05-19T21:00:15.249Z,101076.41
2023-05-19T21:02:41.724Z,101075.91
2023-05-19T21:05:08.524Z,101077.47
2023-05-19T21:07:35.133Z,101082.28
2023-05-19T21:10:01.621Z,101083.06
2023-05-19T21:12:33.725Z,101080.59
2023-05-19T21:15:01.397Z,101084.47
2023-05-19T21:17:27.986Z,101082.28
2023-05-19T21:19:57.806Z,101077.75
2023-05-19T21:22:25.465Z,101075.66
2023-05-19T21:24:52.172Z,101069.34
2023-05-19T21:27:19.109Z,101071.88
2023-05-19T21:29:46.306Z,101071.75
2023-05-19T21:32:13.517Z,101070.19
2023-05-19T21:34:40.131Z,101061.69
2023-05-19T21:37:06.992Z,101059.88
2023-05-19T21:39:33.415Z,101065.63
2023-05-19T21:41:59.905Z,101067.28
2023-05-19T21:44:26.703Z,101057.84
2023-05-19T21:46:54.216Z,101055.50
2023-05-19T21:49:21.056Z,101054.84
2023-05-19T21:51:48.413Z,101055.34
2023-05-19T21:54:15.526Z,101061.53
2023-05-19T21:56:43.065Z,101059.72
2023-05-19T21:59:12.023Z,101053.81
2023-05-19T22:01:40.488Z,101057.28
2023-05-19T22:04:10.015Z,101051.75
2023-05-19T22:06:36.477Z,101048.03
2023-05-19T22:09:03.319Z,101042.94
2023-05-19T22:11:29.748Z,101047.38
2023-05-19T22:13:56.327Z,101048.50
2023-05-19T22:16:24.289Z,101052.63
2023-05-19T22:18:51.133Z,101038.34
2023-05-19T22:21:17.894Z,101047.63
2023-05-19T22:23:44.766Z,101055.09
2023-05-19T22:26:11.248Z,101056.91
2023-05-19T22:28:40.731Z,101057.16
2023-05-19T22:31:07.288Z,101061.44
2023-05-19T22:33:33.932Z,101059.59
2023-05-19T22:36:00.817Z,101054.44
2023-05-19T22:38:27.316Z,101048.47
2023-05-19T22:40:53.978Z,101049.16
2023-05-19T22:43:20.458Z,101045.53
2023-05-19T22:45:47.154Z,101043.03
2023-05-19T22:48:13.837Z,101046.56
2023-05-19T22:50:40.608Z,101037.88
2023-05-19T22:53:07.092Z,101039.56
2023-05-19T22:55:33.808Z,101044.72
2023-05-19T22:58:03.551Z,101037.31
2023-05-19T23:00:30.076Z,101027.94
2023-05-19T23:02:58.184Z,101031.72
2023-05-19T23:05:24.983Z,101035.75
2023-05-19T23:07:51.525Z,101016.50
2023-05-19T23:10:18.150Z,101011.44
2023-05-19T23:12:45.462Z,101006.03
2023-05-19T23:15:12.031Z,100998.25
2023-05-19T23:17:38.542Z,101005.00
2023-05-19T23:20:05.774Z,100998.13
2023-05-19T23:22:32.328Z,100998.13
2023-05-19T23:24:58.878Z,100991.97
2023-05-19T23:27:25.339Z,100996.47
2023-05-19T23:29:51.781Z,100996.47
2023-05-19T23:32:18.328Z,100987.25
2023-05-19T23:34:47.205Z,100987.97
2023-05-19T23:37:13.699Z,100987.53
2023-05-19T23:39:40.355Z,100982.38
2023-05-19T23:42:06.845Z,100985.19
2023-05-19T23:44:33.281Z,100982.81
2023-05-19T23:46:59.806Z,100987.47
2023-05-19T23:49:26.475Z,100987.25
2023-05-19T23:51:53.006Z,100989.28
2023-05-19T23:54:19.496Z,100981.84
2023-05-19T23:56:46.113Z,100981.88
2023-05-19T23:59:12.594Z,100985.69
